Time,TemperatureF,DewpointF,PressureIn,WindDirection,WindDirectionDegrees,WindSpeedMPH,WindSpeedGustMPH,Humidity,HourlyPrecipIn,Conditions,Clouds,dailyrainin,SoftwareType,DateUTC
2013-01-14 00:00:00,64.0,61.7,30.07,SSE,150,0.0,3.0,92,0.00,,,0.00,meteohub,2013-01-14 05:00:00,
2013-01-14 00:02:00,64.0,61.7,30.07,SSE,150,0.0,3.0,92,0.00,,,0.00,meteohub,2013-01-14 05:02:00,
2013-01-14 00:04:00,64.0,61.7,30.07,SSW,200,1.0,3.0,92,0.00,,,0.00,meteohub,2013-01-14 05:04:00,
2013-01-14 00:09:00,63.9,61.9,30.07,SSW,200,0.0,4.0,93,0.00,,,0.00,meteohub,2013-01-14 05:09:00,
2013-01-14 00:14:00,63.7,61.7,30.07,SSW,200,0.0,4.0,93,0.00,,,0.00,meteohub,2013-01-14 05:14:00,
2013-01-14 00:19:00,63.5,61.5,30.07,WNW,284,0.0,3.0,93,0.00,,,0.00,meteohub,2013-01-14 05:19:00,
2013-01-14 00:25:00,63.3,61.5,30.07,NE,44,0.0,2.0,94,0.00,,,0.00,meteohub,2013-01-14 05:25:00,
2013-01-14 00:30:00,63.3,61.5,30.07,SE,126,0.0,2.0,94,0.00,,,0.00,meteohub,2013-01-14 05:30:00,
2013-01-14 00:35:00,63.3,61.5,30.07,SSW,207,0.0,6.0,94,0.01,,,0.01,meteohub,2013-01-14 05:35:00,
2013-01-14 00:40:00,63.3,61.5,30.07,SSW,207,0.0,6.0,94,0.01,,,0.01,meteohub,2013-01-14 05:40:00,
2013-01-14 00:45:00,63.3,61.5,30.07,SSW,207,0.0,6.0,94,0.02,,,0.01,meteohub,2013-01-14 05:45:00,
2013-01-14 00:50:00,63.1,61.7,30.07,SSW,207,0.0,1.0,95,0.03,,,0.03,meteohub,2013-01-14 05:50:00,
2013-01-14 00:55:00,63.1,61.7,30.07,South,171,0.0,1.0,95,0.04,,,0.04,meteohub,2013-01-14 05:55:00,
2013-01-14 01:00:00,63.1,61.7,30.07,West,267,0.0,1.0,95,0.05,,,0.05,meteohub,2013-01-14 06:00:00,
2013-01-14 01:05:00,63.0,61.9,30.07,SSW,207,0.0,2.0,96,0.05,,,0.05,meteohub,2013-01-14 06:05:00,
2013-01-14 01:10:00,63.0,61.9,30.06,SSW,207,0.0,2.0,96,0.05,,,0.05,meteohub,2013-01-14 06:10:00,
2013-01-14 01:15:00,63.0,61.9,30.07,South,179,0.0,2.0,96,0.05,,,0.05,meteohub,2013-01-14 06:15:00,
2013-01-14 01:20:00,63.0,61.9,30.07,SW,218,0.0,2.0,96,0.06,,,0.06,meteohub,2013-01-14 06:20:00,
2013-01-14 01:25:00,62.8,61.9,30.06,SW,218,0.0,2.0,97,0.07,,,0.07,meteohub,2013-01-14 06:25:00,
2013-01-14 01:30:00,62.8,61.9,30.07,SW,218,0.0,2.0,97,0.06,,,0.07,meteohub,2013-01-14 06:30:00,
2013-01-14 01:36:00,62.8,61.9,30.07,SW,218,0.0,2.0,97,0.07,,,0.08,meteohub,2013-01-14 06:36:00,
2013-01-14 01:41:00,62.8,61.9,30.07,SW,218,0.0,1.0,97,0.07,,,0.08,meteohub,2013-01-14 06:41:00,
2013-01-14 01:46:00,62.8,61.9,30.07,SSW,213,0.0,1.0,97,0.05,,,0.08,meteohub,2013-01-14 06:46:00,
2013-01-14 01:51:00,62.8,61.9,30.06,SSW,213,0.0,1.0,97,0.05,,,0.09,meteohub,2013-01-14 06:51:00,
2013-01-14 01:56:00,62.8,61.9,30.07,SSW,213,0.0,1.0,97,0.06,,,0.10,meteohub,2013-01-14 06:56:00,
2013-01-14 02:01:00,62.8,61.9,30.07,SSW,213,0.0,1.0,97,0.06,,,0.11,meteohub,2013-01-14 07:01:00,
2013-01-14 02:06:00,62.6,62.1,30.07,SSW,213,0.0,1.0,98,0.06,,,0.11,meteohub,2013-01-14 07:06:00,
2013-01-14 02:11:00,62.6,61.7,30.07,SSW,213,0.0,1.0,97,0.06,,,0.11,meteohub,2013-01-14 07:11:00,
2013-01-14 02:16:00,62.6,61.7,30.06,ESE,115,0.0,4.0,97,0.05,,,0.11,meteohub,2013-01-14 07:16:00,
2013-01-14 02:21:00,62.4,61.9,30.07,ESE,115,0.0,4.0,98,0.04,,,0.11,meteohub,2013-01-14 07:21:00,
2013-01-14 02:26:00,62.4,61.9,30.06,ESE,115,0.0,4.0,98,0.04,,,0.11,meteohub,2013-01-14 07:26:00,
2013-01-14 02:31:00,62.6,62.1,30.06,East,98,0.0,1.0,98,0.04,,,0.11,meteohub,2013-01-14 07:31:00,
2013-01-14 02:36:00,62.6,62.1,30.06,East,98,0.0,4.0,98,0.03,,,0.11,meteohub,2013-01-14 07:36:00,
2013-01-14 02:41:00,62.6,62.1,30.06,East,98,0.0,4.0,98,0.03,,,0.11,meteohub,2013-01-14 07:41:00,
2013-01-14 02:46:00,62.6,62.1,30.06,SSE,166,0.0,4.0,98,0.02,,,0.11,meteohub,2013-01-14 07:46:00,
2013-01-14 02:51:00,62.6,62.1,30.06,SW,223,0.0,3.0,98,0.02,,,0.12,meteohub,2013-01-14 07:51:00,
2013-01-14 02:57:00,62.6,62.1,30.06,SSE,153,0.0,3.0,98,0.02,,,0.12,meteohub,2013-01-14 07:57:00,
2013-01-14 03:02:00,62.6,62.1,30.06,SSE,153,0.0,3.0,98,0.01,,,0.12,meteohub,2013-01-14 08:02:00,
2013-01-14 03:07:00,62.8,62.2,30.06,SSE,153,0.0,1.0,98,0.01,,,0.12,meteohub,2013-01-14 08:07:00,
2013-01-14 03:12:00,62.8,62.2,30.06,SSE,153,0.0,1.0,98,0.01,,,0.12,meteohub,2013-01-14 08:12:00,
2013-01-14 03:17:00,62.8,62.2,30.06,SSE,153,0.0,1.0,98,0.01,,,0.12,meteohub,2013-01-14 08:17:00,
2013-01-14 03:22:00,62.8,62.2,30.06,SE,136,0.0,1.0,98,0.01,,,0.12,meteohub,2013-01-14 08:22:00,
2013-01-14 03:27:00,62.8,62.2,30.06,SE,136,0.0,2.0,98,0.01,,,0.12,meteohub,2013-01-14 08:27:00,
2013-01-14 03:32:00,62.8,62.2,30.06,SE,136,0.0,2.0,98,0.01,,,0.12,meteohub,2013-01-14 08:32:00,
2013-01-14 03:37:00,62.8,62.2,30.06,SE,146,1.0,2.0,98,0.01,,,0.12,meteohub,2013-01-14 08:37:00,
2013-01-14 03:42:00,62.8,62.2,30.06,SSE,147,0.0,1.0,98,0.01,,,0.12,meteohub,2013-01-14 08:42:00,
2013-01-14 03:47:00,62.8,62.2,30.06,SSE,147,0.0,1.0,98,0.00,,,0.12,meteohub,2013-01-14 08:47:00,
2013-01-14 03:52:00,62.8,62.2,30.06,SSE,147,0.0,1.0,98,0.00,,,0.12,meteohub,2013-01-14 08:52:00,
2013-01-14 03:57:00,62.8,62.4,30.06,SSE,147,1.0,1.0,99,0.00,,,0.12,meteohub,2013-01-14 08:57:00,
2013-01-14 04:02:00,63.0,62.4,30.06,SSE,147,0.0,1.0,98,0.00,,,0.12,meteohub,2013-01-14 09:02:00,
2013-01-14 04:07:00,63.0,62.6,30.05,SSE,147,0.0,1.0,99,0.00,,,0.12,meteohub,2013-01-14 09:07:00,
2013-01-14 04:12:00,63.0,62.6,30.05,South,185,0.0,1.0,99,0.00,,,0.12,meteohub,2013-01-14 09:12:00,
2013-01-14 04:18:00,63.0,62.6,30.06,South,188,0.0,2.0,99,0.00,,,0.12,meteohub,2013-01-14 09:18:00,
2013-01-14 04:23:00,63.0,62.6,30.05,South,173,0.0,3.0,99,0.00,,,0.12,meteohub,2013-01-14 09:23:00,
2013-01-14 04:28:00,63.0,62.6,30.05,South,173,0.0,3.0,99,0.00,,,0.12,meteohub,2013-01-14 09:28:00,
2013-01-14 04:33:00,63.0,62.6,30.05,South,173,0.0,3.0,99,0.00,,,0.12,meteohub,2013-01-14 09:33:00,
2013-01-14 04:38:00,63.0,62.6,30.05,South,173,0.0,1.0,99,0.00,,,0.12,meteohub,2013-01-14 09:38:00,
2013-01-14 04:43:00,63.0,62.6,30.05,South,173,0.0,1.0,99,0.00,,,0.12,meteohub,2013-01-14 09:43:00,
2013-01-14 04:48:00,63.0,62.6,30.05,South,173,0.0,1.0,99,0.00,,,0.12,meteohub,2013-01-14 09:48:00,
2013-01-14 04:53:00,63.1,62.8,30.05,South,173,0.0,1.0,99,0.00,,,0.12,meteohub,2013-01-14 09:53:00,
2013-01-14 04:58:00,63.1,62.8,30.04,South,173,0.0,1.0,99,0.00,,,0.12,meteohub,2013-01-14 09:58:00,
2013-01-14 05:03:00,63.1,62.8,30.05,South,173,0.0,1.0,99,0.00,,,0.12,meteohub,2013-01-14 10:03:00,
2013-01-14 05:08:00,63.1,62.8,30.04,South,173,0.0,1.0,99,0.00,,,0.12,meteohub,2013-01-14 10:08:00,
2013-01-14 05:13:00,63.1,62.8,30.04,South,173,0.0,1.0,99,0.00,,,0.12,meteohub,2013-01-14 10:13:00,
2013-01-14 05:18:00,63.1,62.8,30.05,South,173,0.0,1.0,99,0.00,,,0.12,meteohub,2013-01-14 10:18:00,
2013-01-14 05:23:00,63.1,62.8,30.05,SSE,155,0.0,1.0,99,0.00,,,0.12,meteohub,2013-01-14 10:23:00,
2013-01-14 05:28:00,63.1,62.8,30.05,SSE,165,0.0,1.0,99,0.00,,,0.12,meteohub,2013-01-14 10:28:00,
2013-01-14 05:33:00,63.1,62.8,30.05,SSE,165,0.0,1.0,99,0.00,,,0.12,meteohub,2013-01-14 10:33:00,
2013-01-14 05:38:00,63.1,62.8,30.05,SSE,165,0.0,1.0,99,0.00,,,0.12,meteohub,2013-01-14 10:38:00,
2013-01-14 05:43:00,63.1,62.8,30.05,SSE,165,0.0,1.0,99,0.00,,,0.12,meteohub,2013-01-14 10:43:00,
2013-01-14 05:48:00,63.1,62.8,30.05,SSE,165,0.0,1.0,99,0.00,,,0.12,meteohub,2013-01-14 10:48:00,
2013-01-14 05:53:00,63.1,62.8,30.05,SSE,165,0.0,1.0,99,0.01,,,0.13,meteohub,2013-01-14 10:53:00,
2013-01-14 05:59:00,63.1,62.8,30.06,SSE,165,0.0,1.0,99,0.02,,,0.14,meteohub,2013-01-14 10:59:00,
2013-01-14 06:04:00,63.1,62.8,30.06,SSE,165,0.0,1.0,99,0.02,,,0.14,meteohub,2013-01-14 11:04:00,
2013-01-14 06:09:00,63.1,62.8,30.06,SSE,165,0.0,1.0,99,0.02,,,0.14,meteohub,2013-01-14 11:09:00,
2013-01-14 06:14:00,63.1,62.8,30.06,SSE,165,0.0,1.0,99,0.02,,,0.14,meteohub,2013-01-14 11:14:00,
2013-01-14 06:19:00,63.1,62.8,30.06,SSE,165,0.0,0.0,99,0.02,,,0.14,meteohub,2013-01-14 11:19:00,
2013-01-14 06:24:00,63.3,63.0,30.07,SSE,165,0.0,0.0,99,0.03,,,0.15,meteohub,2013-01-14 11:24:00,
2013-01-14 06:29:00,63.3,63.0,30.06,SSE,165,0.0,0.0,99,0.03,,,0.15,meteohub,2013-01-14 11:29:00,
2013-01-14 06:34:00,63.3,63.0,30.07,SSE,165,0.0,1.0,99,0.03,,,0.15,meteohub,2013-01-14 11:34:00,
2013-01-14 06:39:00,63.3,63.0,30.07,SSE,165,0.0,1.0,99,0.03,,,0.15,meteohub,2013-01-14 11:39:00,
2013-01-14 06:44:00,63.3,63.0,30.06,SSE,165,0.0,1.0,99,0.04,,,0.16,meteohub,2013-01-14 11:44:00,
2013-01-14 06:49:00,63.3,63.0,30.07,SSE,165,0.0,0.0,99,0.05,,,0.17,meteohub,2013-01-14 11:49:00,
2013-01-14 06:54:00,63.3,63.0,30.07,SSE,165,0.0,0.0,99,0.05,,,0.18,meteohub,2013-01-14 11:54:00,
2013-01-14 06:59:00,63.5,63.1,30.08,SSE,165,0.0,1.0,99,0.05,,,0.19,meteohub,2013-01-14 11:59:00,
2013-01-14 07:04:00,63.5,63.1,30.08,SSE,165,0.0,1.0,99,0.06,,,0.20,meteohub,2013-01-14 12:04:00,
2013-01-14 07:10:00,63.5,63.1,30.08,SSE,165,0.0,1.0,99,0.06,,,0.20,meteohub,2013-01-14 12:10:00,
2013-01-14 07:15:00,63.5,63.1,30.08,SSE,165,1.0,1.0,99,0.07,,,0.21,meteohub,2013-01-14 12:15:00,
2013-01-14 07:20:00,63.7,63.3,30.09,SSE,165,0.0,1.0,99,0.06,,,0.21,meteohub,2013-01-14 12:20:00,
2013-01-14 07:25:00,63.7,63.3,30.09,SSE,165,0.0,1.0,99,0.06,,,0.21,meteohub,2013-01-14 12:25:00,
2013-01-14 07:30:00,63.7,63.3,30.08,SSE,165,0.0,0.0,99,0.06,,,0.21,meteohub,2013-01-14 12:30:00,
2013-01-14 07:35:00,63.7,63.3,30.08,SSE,165,0.0,1.0,99,0.06,,,0.21,meteohub,2013-01-14 12:35:00,
2013-01-14 07:40:00,63.7,63.3,30.09,SSE,165,0.0,1.0,99,0.06,,,0.22,meteohub,2013-01-14 12:40:00,
2013-01-14 07:45:00,63.7,63.3,30.09,SSE,165,0.0,1.0,99,0.05,,,0.22,meteohub,2013-01-14 12:45:00,
2013-01-14 07:50:00,63.7,63.3,30.09,SSE,165,0.0,0.0,99,0.04,,,0.22,meteohub,2013-01-14 12:50:00,
2013-01-14 07:55:00,63.7,63.3,30.09,SSW,199,0.0,2.0,99,0.02,,,0.22,meteohub,2013-01-14 12:55:00,
2013-01-14 08:00:00,63.9,63.5,30.09,SSW,199,0.0,2.0,99,0.02,,,0.22,meteohub,2013-01-14 13:00:00,
2013-01-14 08:05:00,63.9,63.5,30.09,SSW,199,0.0,2.0,99,0.01,,,0.22,meteohub,2013-01-14 13:05:00,
2013-01-14 08:10:00,63.9,63.5,30.10,SSW,199,0.0,1.0,99,0.02,,,0.23,meteohub,2013-01-14 13:10:00,
2013-01-14 08:15:00,63.9,63.5,30.10,SSW,199,0.0,0.0,99,0.02,,,0.23,meteohub,2013-01-14 13:15:00,
2013-01-14 08:21:00,64.0,63.7,30.11,SSW,199,0.0,1.0,99,0.03,,,0.24,meteohub,2013-01-14 13:21:00,
2013-01-14 08:26:00,64.0,63.7,30.11,SSW,199,0.0,1.0,99,0.03,,,0.24,meteohub,2013-01-14 13:26:00,
2013-01-14 08:31:00,64.0,63.7,30.11,SSW,199,0.0,1.0,99,0.03,,,0.24,meteohub,2013-01-14 13:31:00,
2013-01-14 08:36:00,64.2,63.9,30.11,SSW,199,0.0,1.0,99,0.03,,,0.24,meteohub,2013-01-14 13:36:00,
2013-01-14 08:41:00,64.2,63.9,30.12,SE,125,0.0,1.0,99,0.02,,,0.24,meteohub,2013-01-14 13:41:00,
2013-01-14 08:46:00,64.2,63.9,30.12,SE,125,0.0,1.0,99,0.02,,,0.24,meteohub,2013-01-14 13:46:00,
2013-01-14 08:51:00,64.2,63.9,30.12,SSE,155,1.0,1.0,99,0.02,,,0.24,meteohub,2013-01-14 13:51:00,
2013-01-14 08:56:00,64.2,63.9,30.11,SSE,154,0.0,1.0,99,0.03,,,0.25,meteohub,2013-01-14 13:56:00,
2013-01-14 09:01:00,64.2,63.9,30.11,SW,228,0.0,1.0,99,0.04,,,0.26,meteohub,2013-01-14 14:01:00,
2013-01-14 09:06:00,64.2,63.9,30.10,SSE,152,0.0,3.0,99,0.04,,,0.27,meteohub,2013-01-14 14:06:00,
2013-01-14 09:11:00,64.2,63.9,30.10,WSW,252,0.0,4.0,99,0.05,,,0.28,meteohub,2013-01-14 14:11:00,
2013-01-14 09:16:00,64.2,63.9,30.11,South,189,0.0,4.0,99,0.06,,,0.29,meteohub,2013-01-14 14:16:00,
2013-01-14 09:21:00,64.2,64.2,30.11,SSE,163,2.0,5.0,100,0.06,,,0.30,meteohub,2013-01-14 14:21:00,
2013-01-14 09:26:00,64.2,64.2,30.11,SSW,208,0.0,5.0,100,0.07,,,0.31,meteohub,2013-01-14 14:26:00,
2013-01-14 09:31:00,64.2,64.2,30.12,SSE,154,0.0,5.0,100,0.08,,,0.32,meteohub,2013-01-14 14:31:00,
2013-01-14 09:36:00,64.4,64.4,30.11,SSW,205,0.0,4.0,100,0.08,,,0.32,meteohub,2013-01-14 14:36:00,
2013-01-14 09:41:00,64.6,64.6,30.12,SSW,205,0.0,2.0,100,0.08,,,0.32,meteohub,2013-01-14 14:41:00,
2013-01-14 09:46:00,64.6,64.6,30.12,SSW,206,0.0,2.0,100,0.08,,,0.32,meteohub,2013-01-14 14:46:00,
2013-01-14 09:52:00,64.6,64.6,30.12,SSW,206,0.0,2.0,100,0.09,,,0.33,meteohub,2013-01-14 14:52:00,
2013-01-14 09:57:00,64.6,64.6,30.12,SSW,198,0.0,2.0,100,0.08,,,0.33,meteohub,2013-01-14 14:57:00,
2013-01-14 10:02:00,64.6,64.6,30.12,SSW,198,0.0,2.0,100,0.09,,,0.35,meteohub,2013-01-14 15:02:00,
2013-01-14 10:07:00,64.4,64.4,30.12,SSW,198,0.0,2.0,100,0.09,,,0.35,meteohub,2013-01-14 15:07:00,
2013-01-14 10:12:00,64.4,64.4,30.12,SSW,198,0.0,2.0,100,0.08,,,0.36,meteohub,2013-01-14 15:12:00,
2013-01-14 10:17:00,64.6,64.6,30.12,SSW,192,0.0,4.0,100,0.06,,,0.36,meteohub,2013-01-14 15:17:00,
2013-01-14 10:22:00,64.6,64.6,30.12,SSE,160,0.0,4.0,100,0.06,,,0.36,meteohub,2013-01-14 15:22:00,
2013-01-14 10:27:00,64.6,64.6,30.12,SSE,160,0.0,4.0,100,0.05,,,0.36,meteohub,2013-01-14 15:27:00,
2013-01-14 10:32:00,64.6,64.6,30.12,SSE,161,0.0,2.0,100,0.04,,,0.36,meteohub,2013-01-14 15:32:00,
2013-01-14 10:37:00,64.6,64.6,30.12,South,180,1.0,1.0,100,0.04,,,0.36,meteohub,2013-01-14 15:37:00,
2013-01-14 10:42:00,64.6,64.6,30.12,South,180,0.0,4.0,100,0.04,,,0.36,meteohub,2013-01-14 15:42:00,
2013-01-14 10:47:00,64.6,64.2,30.12,East,98,0.0,4.0,99,0.04,,,0.36,meteohub,2013-01-14 15:47:00,
2013-01-14 10:52:00,64.8,64.4,30.12,East,98,0.0,5.0,99,0.03,,,0.36,meteohub,2013-01-14 15:52:00,
2013-01-14 10:57:00,64.8,64.8,30.12,SSE,166,0.0,5.0,100,0.01,,,0.36,meteohub,2013-01-14 15:57:00,
2013-01-14 11:02:00,64.6,64.6,30.12,SSW,198,0.0,2.0,100,0.01,,,0.36,meteohub,2013-01-14 16:02:00,
2013-01-14 11:07:00,63.3,63.0,30.12,SSW,198,0.0,3.0,99,0.00,,,0.36,meteohub,2013-01-14 16:07:00,
2013-01-14 11:12:00,62.8,62.2,30.12,SSW,198,0.0,3.0,98,0.00,,,0.36,meteohub,2013-01-14 16:12:00,
2013-01-14 11:17:00,62.1,61.5,30.12,SSW,198,0.0,2.0,98,0.00,,,0.36,meteohub,2013-01-14 16:17:00,
2013-01-14 11:22:00,61.9,61.3,30.12,SSW,198,0.0,2.0,98,0.00,,,0.36,meteohub,2013-01-14 16:22:00,
2013-01-14 11:27:00,60.6,59.5,30.14,West,262,0.0,2.0,96,0.00,,,0.36,meteohub,2013-01-14 16:27:00,
2013-01-14 11:32:00,59.2,57.4,30.12,WNW,285,0.0,4.0,94,0.00,,,0.36,meteohub,2013-01-14 16:32:00,
2013-01-14 11:37:00,58.3,57.2,30.12,WNW,285,0.0,4.0,96,0.00,,,0.36,meteohub,2013-01-14 16:37:00,
2013-01-14 11:42:00,57.9,57.0,30.12,NNW,329,0.0,4.0,97,0.00,,,0.36,meteohub,2013-01-14 16:42:00,
2013-01-14 11:47:00,57.7,56.7,30.12,NNW,328,0.0,2.0,96,0.00,,,0.36,meteohub,2013-01-14 16:47:00,
2013-01-14 11:52:00,57.0,55.6,30.12,NW,306,0.0,2.0,95,0.00,,,0.36,meteohub,2013-01-14 16:52:00,
2013-01-14 11:57:00,56.1,54.5,30.11,NE,36,0.0,6.0,94,0.00,,,0.36,meteohub,2013-01-14 16:57:00,
2013-01-14 12:02:00,55.6,54.1,30.11,NNE,30,0.0,6.0,95,0.00,,,0.36,meteohub,2013-01-14 17:02:00,
2013-01-14 12:07:00,55.2,54.1,30.11,NNE,30,0.0,4.0,96,0.00,,,0.36,meteohub,2013-01-14 17:07:00,
2013-01-14 12:12:00,55.4,54.5,30.11,NNE,30,0.0,4.0,97,0.00,,,0.36,meteohub,2013-01-14 17:12:00,
2013-01-14 12:17:00,55.6,54.7,30.11,NNE,30,0.0,3.0,97,0.00,,,0.36,meteohub,2013-01-14 17:17:00,
2013-01-14 12:22:00,55.6,54.7,30.10,NNE,30,0.0,2.0,97,0.00,,,0.36,meteohub,2013-01-14 17:22:00,
2013-01-14 12:27:00,55.4,54.3,30.10,NNE,30,0.0,2.0,96,0.00,,,0.36,meteohub,2013-01-14 17:27:00,
2013-01-14 12:32:00,55.2,54.3,30.09,NNE,30,0.0,3.0,97,0.00,,,0.36,meteohub,2013-01-14 17:32:00,
2013-01-14 12:37:00,55.2,54.1,30.09,NW,316,1.0,3.0,96,0.00,,,0.36,meteohub,2013-01-14 17:37:00,
2013-01-14 12:42:00,54.9,53.8,30.09,North,355,0.0,5.0,96,0.00,,,0.36,meteohub,2013-01-14 17:42:00,
2013-01-14 12:47:00,54.9,53.8,30.09,NW,315,0.0,5.0,96,0.00,,,0.36,meteohub,2013-01-14 17:47:00,
2013-01-14 12:52:00,54.9,54.0,30.09,NW,315,1.0,5.0,97,0.00,,,0.36,meteohub,2013-01-14 17:52:00,
2013-01-14 12:57:00,54.9,53.8,30.09,NW,316,0.0,4.0,96,0.00,,,0.36,meteohub,2013-01-14 17:57:00,
2013-01-14 13:02:00,54.7,53.6,30.08,NW,309,0.0,4.0,96,0.00,,,0.36,meteohub,2013-01-14 18:02:00,
2013-01-14 13:07:00,54.9,53.8,30.08,North,5,0.0,4.0,96,0.00,,,0.36,meteohub,2013-01-14 18:07:00,
2013-01-14 13:12:00,54.9,53.8,30.08,North,0,0.0,3.0,96,0.00,,,0.36,meteohub,2013-01-14 18:12:00,
2013-01-14 13:17:00,55.0,54.1,30.08,NW,311,0.0,3.0,97,0.00,,,0.36,meteohub,2013-01-14 18:17:00,
2013-01-14 13:22:00,55.6,54.7,30.08,NNW,327,1.0,4.0,97,0.00,,,0.36,meteohub,2013-01-14 18:22:00,
2013-01-14 13:27:00,55.8,54.9,30.08,NW,325,1.0,4.0,97,0.00,,,0.36,meteohub,2013-01-14 18:27:00,
2013-01-14 13:32:00,55.8,54.3,30.08,NNE,17,1.0,4.0,95,0.00,,,0.36,meteohub,2013-01-14 18:32:00,
2013-01-14 13:37:00,55.6,54.1,30.07,North,0,0.0,4.0,95,0.00,,,0.36,meteohub,2013-01-14 18:37:00,
2013-01-14 13:42:00,55.8,54.3,30.07,NE,46,0.0,4.0,95,0.00,,,0.36,meteohub,2013-01-14 18:42:00,
2013-01-14 13:47:00,55.6,54.1,30.07,NE,46,0.0,4.0,95,0.00,,,0.36,meteohub,2013-01-14 18:47:00,
2013-01-14 13:52:00,55.8,54.3,30.08,NE,36,0.0,3.0,95,0.00,,,0.36,meteohub,2013-01-14 18:52:00,
2013-01-14 13:57:00,55.8,54.3,30.08,NNE,24,3.0,3.0,95,0.00,,,0.36,meteohub,2013-01-14 18:57:00,
2013-01-14 14:02:00,55.8,54.3,30.09,NE,42,1.0,3.0,95,0.00,,,0.36,meteohub,2013-01-14 19:02:00,
2013-01-14 14:07:00,55.8,54.3,30.09,NNE,16,0.0,4.0,95,0.00,,,0.36,meteohub,2013-01-14 19:07:00,
2013-01-14 14:12:00,55.8,54.3,30.09,NNE,26,1.0,4.0,95,0.00,,,0.36,meteohub,2013-01-14 19:12:00,
2013-01-14 14:17:00,55.8,54.3,30.08,NNE,22,0.0,3.0,95,0.00,,,0.36,meteohub,2013-01-14 19:17:00,
2013-01-14 14:22:00,55.8,54.1,30.07,NNE,30,2.0,2.0,94,0.00,,,0.36,meteohub,2013-01-14 19:22:00,
2013-01-14 14:27:00,55.6,54.0,30.08,NNE,29,0.0,3.0,94,0.00,,,0.36,meteohub,2013-01-14 19:27:00,
2013-01-14 14:32:00,55.6,54.0,30.07,NNE,29,0.0,3.0,94,0.00,,,0.36,meteohub,2013-01-14 19:32:00,
2013-01-14 14:37:00,55.6,54.1,30.07,NNE,29,0.0,3.0,95,0.00,,,0.36,meteohub,2013-01-14 19:37:00,
2013-01-14 14:42:00,55.9,54.9,30.07,North,355,1.0,2.0,96,0.00,,,0.36,meteohub,2013-01-14 19:42:00,
2013-01-14 14:47:00,56.1,54.7,30.07,North,355,1.0,5.0,95,0.00,,,0.36,meteohub,2013-01-14 19:47:00,
2013-01-14 14:52:00,56.3,54.9,30.08,NNE,21,0.0,5.0,95,0.00,,,0.36,meteohub,2013-01-14 19:52:00,
2013-01-14 14:57:00,56.7,55.2,30.07,NNE,21,0.0,5.0,95,0.00,,,0.36,meteohub,2013-01-14 19:57:00,
2013-01-14 15:02:00,56.8,55.2,30.08,NNE,21,0.0,4.0,94,0.00,,,0.36,meteohub,2013-01-14 20:02:00,
2013-01-14 15:07:00,57.0,55.6,30.08,NNE,12,0.0,2.0,95,0.00,,,0.36,meteohub,2013-01-14 20:07:00,
2013-01-14 15:12:00,57.4,55.9,30.08,NNE,12,0.0,2.0,95,0.00,,,0.36,meteohub,2013-01-14 20:12:00,
2013-01-14 15:17:00,57.7,56.3,30.08,NNE,12,0.0,2.0,95,0.00,,,0.36,meteohub,2013-01-14 20:17:00,
2013-01-14 15:22:00,58.3,56.5,30.08,NNE,12,0.0,2.0,94,0.00,,,0.36,meteohub,2013-01-14 20:22:00,
2013-01-14 15:27:00,58.5,56.5,30.08,NNE,17,2.0,2.0,93,0.00,,,0.36,meteohub,2013-01-14 20:27:00,
2013-01-14 15:33:00,58.5,56.1,30.08,NNE,17,0.0,2.0,92,0.00,,,0.36,meteohub,2013-01-14 20:33:00,
2013-01-14 15:38:00,58.5,56.1,30.08,NNE,25,1.0,2.0,92,0.00,,,0.36,meteohub,2013-01-14 20:38:00,
2013-01-14 15:43:00,58.6,56.3,30.09,NE,51,0.0,3.0,92,0.00,,,0.36,meteohub,2013-01-14 20:43:00,
2013-01-14 15:48:00,58.8,56.8,30.09,NE,51,0.0,3.0,93,0.00,,,0.36,meteohub,2013-01-14 20:48:00,
2013-01-14 15:53:00,58.8,56.5,30.09,NE,49,0.0,3.0,92,0.00,,,0.36,meteohub,2013-01-14 20:53:00,
2013-01-14 15:58:00,59.0,56.7,30.09,NE,49,2.0,3.0,92,0.00,,,0.36,meteohub,2013-01-14 20:58:00,
2013-01-14 16:03:00,58.8,56.5,30.09,NE,40,0.0,2.0,92,0.00,,,0.36,meteohub,2013-01-14 21:03:00,
2013-01-14 16:08:00,58.6,56.3,30.09,NE,40,0.0,2.0,92,0.00,,,0.36,meteohub,2013-01-14 21:08:00,
2013-01-14 16:13:00,58.8,56.5,30.09,NE,40,0.0,2.0,92,0.00,,,0.36,meteohub,2013-01-14 21:13:00,
2013-01-14 16:18:00,58.6,56.3,30.09,NE,40,0.0,2.0,92,0.00,,,0.36,meteohub,2013-01-14 21:18:00,
2013-01-14 16:23:00,58.6,56.3,30.09,NE,40,0.0,2.0,92,0.00,,,0.36,meteohub,2013-01-14 21:23:00,
2013-01-14 16:28:00,58.6,56.3,30.10,NE,40,0.0,2.0,92,0.00,,,0.36,meteohub,2013-01-14 21:28:00,
2013-01-14 16:33:00,58.6,56.3,30.10,NE,39,1.0,2.0,92,0.00,,,0.36,meteohub,2013-01-14 21:33:00,
2013-01-14 16:38:00,58.5,56.1,30.10,NE,39,0.0,2.0,92,0.00,,,0.36,meteohub,2013-01-14 21:38:00,
2013-01-14 16:43:00,58.5,56.1,30.11,NE,39,0.0,2.0,92,0.00,,,0.36,meteohub,2013-01-14 21:43:00,
2013-01-14 16:49:00,58.3,55.9,30.11,NE,39,1.0,2.0,92,0.00,,,0.36,meteohub,2013-01-14 21:49:00,
2013-01-14 16:54:00,58.3,55.9,30.12,NE,34,0.0,2.0,92,0.00,,,0.36,meteohub,2013-01-14 21:54:00,
2013-01-14 16:59:00,58.1,55.8,30.11,NE,34,1.0,2.0,92,0.00,,,0.36,meteohub,2013-01-14 21:59:00,
2013-01-14 17:04:00,57.9,55.6,30.11,NE,34,0.0,2.0,92,0.00,,,0.36,meteohub,2013-01-14 22:04:00,
2013-01-14 17:09:00,57.7,55.8,30.11,NE,34,0.0,3.0,93,0.00,,,0.36,meteohub,2013-01-14 22:09:00,
2013-01-14 17:14:00,57.7,55.8,30.11,NE,34,0.0,3.0,93,0.00,,,0.36,meteohub,2013-01-14 22:14:00,
2013-01-14 17:19:00,57.6,55.6,30.11,NE,34,0.0,2.0,93,0.00,,,0.36,meteohub,2013-01-14 22:19:00,
2013-01-14 17:24:00,57.4,55.4,30.12,NE,34,0.0,1.0,93,0.00,,,0.36,meteohub,2013-01-14 22:24:00,
2013-01-14 17:29:00,57.2,55.2,30.11,NE,34,1.0,2.0,93,0.00,,,0.36,meteohub,2013-01-14 22:29:00,
2013-01-14 17:34:00,57.0,55.0,30.11,NE,34,0.0,2.0,93,0.00,,,0.36,meteohub,2013-01-14 22:34:00,
2013-01-14 17:39:00,57.0,55.2,30.12,NE,34,0.0,2.0,94,0.00,,,0.36,meteohub,2013-01-14 22:39:00,
2013-01-14 17:44:00,56.8,55.2,30.12,NE,34,0.0,2.0,94,0.00,,,0.36,meteohub,2013-01-14 22:44:00,
2013-01-14 17:49:00,56.8,55.2,30.12,NE,34,0.0,2.0,94,0.00,,,0.36,meteohub,2013-01-14 22:49:00,
2013-01-14 17:54:00,56.8,55.2,30.12,NE,34,0.0,2.0,94,0.00,,,0.36,meteohub,2013-01-14 22:54:00,
2013-01-14 17:59:00,56.8,55.4,30.12,NE,34,0.0,2.0,95,0.01,,,0.37,meteohub,2013-01-14 22:59:00,
2013-01-14 18:04:00,56.8,55.4,30.13,NE,34,0.0,2.0,95,0.03,,,0.39,meteohub,2013-01-14 23:04:00,
2013-01-14 18:09:00,56.7,55.6,30.13,NE,34,0.0,0.0,96,0.04,,,0.40,meteohub,2013-01-14 23:09:00,
2013-01-14 18:14:00,56.7,55.6,30.13,NNW,330,0.0,0.0,96,0.04,,,0.40,meteohub,2013-01-14 23:14:00,
2013-01-14 18:19:00,56.5,55.4,30.13,NNE,30,0.0,4.0,96,0.04,,,0.40,meteohub,2013-01-14 23:19:00,
2013-01-14 18:24:00,56.3,55.2,30.13,NNE,30,0.0,4.0,96,0.05,,,0.41,meteohub,2013-01-14 23:24:00,
2013-01-14 18:30:00,56.1,55.0,30.13,NNE,13,0.0,4.0,96,0.05,,,0.41,meteohub,2013-01-14 23:30:00,
2013-01-14 18:35:00,56.1,55.2,30.12,NNE,13,0.0,2.0,97,0.05,,,0.41,meteohub,2013-01-14 23:35:00,
2013-01-14 18:40:00,55.9,54.9,30.12,NE,36,2.0,4.0,96,0.06,,,0.42,meteohub,2013-01-14 23:40:00,
2013-01-14 18:45:00,55.8,54.9,30.13,NNE,33,1.0,4.0,97,0.06,,,0.42,meteohub,2013-01-14 23:45:00,
2013-01-14 18:50:00,55.8,54.9,30.13,NNE,33,0.0,4.0,97,0.06,,,0.42,meteohub,2013-01-14 23:50:00,
2013-01-14 18:55:00,55.6,54.7,30.14,NE,55,0.0,3.0,97,0.06,,,0.44,meteohub,2013-01-14 23:55:00,
2013-01-14 19:00:00,55.4,54.5,30.14,NE,55,0.0,3.0,97,0.04,,,0.44,meteohub,2013-01-15 00:00:00,
2013-01-14 19:05:00,55.2,54.3,30.14,NNW,327,0.0,4.0,97,0.04,,,0.44,meteohub,2013-01-15 00:05:00,
2013-01-14 19:10:00,55.2,54.3,30.14,WNW,303,2.0,4.0,97,0.04,,,0.44,meteohub,2013-01-15 00:10:00,
2013-01-14 19:15:00,55.0,54.1,30.14,NNW,334,0.0,4.0,97,0.03,,,0.44,meteohub,2013-01-15 00:15:00,
2013-01-14 19:20:00,54.9,54.0,30.15,NW,322,0.0,4.0,97,0.03,,,0.44,meteohub,2013-01-15 00:20:00,
2013-01-14 19:25:00,54.9,54.0,30.15,NW,322,0.0,4.0,97,0.03,,,0.44,meteohub,2013-01-15 00:25:00,
2013-01-14 19:30:00,54.7,53.8,30.15,NNE,29,1.0,4.0,97,0.03,,,0.44,meteohub,2013-01-15 00:30:00,
2013-01-14 19:36:00,54.3,53.4,30.16,NNW,329,0.0,4.0,97,0.03,,,0.44,meteohub,2013-01-15 00:36:00,
2013-01-14 19:41:00,54.0,53.1,30.16,NW,314,0.0,6.0,97,0.02,,,0.44,meteohub,2013-01-15 00:41:00,
2013-01-14 19:46:00,53.6,52.7,30.15,NW,319,0.0,6.0,97,0.02,,,0.44,meteohub,2013-01-15 00:46:00,
2013-01-14 19:51:00,53.4,52.5,30.16,NW,307,4.0,6.0,97,0.02,,,0.44,meteohub,2013-01-15 00:51:00,
2013-01-14 19:56:00,52.9,51.8,30.16,WNW,296,0.0,6.0,96,0.00,,,0.44,meteohub,2013-01-15 00:56:00,
2013-01-14 20:01:00,52.3,51.3,30.16,WNW,300,2.0,9.0,96,0.00,,,0.44,meteohub,2013-01-15 01:01:00,
2013-01-14 20:06:00,51.6,50.2,30.15,NNE,17,2.0,9.0,95,0.00,,,0.44,meteohub,2013-01-15 01:06:00,
2013-01-14 20:11:00,51.3,50.2,30.16,NW,322,0.0,7.0,96,0.00,,,0.44,meteohub,2013-01-15 01:11:00,
2013-01-14 20:16:00,51.3,50.4,30.15,WNW,289,0.0,7.0,97,0.00,,,0.44,meteohub,2013-01-15 01:16:00,
2013-01-14 20:21:00,51.1,50.2,30.15,WNW,290,2.0,7.0,97,0.00,,,0.44,meteohub,2013-01-15 01:21:00,
2013-01-14 20:26:00,50.9,50.0,30.15,WNW,285,5.0,6.0,97,0.00,,,0.44,meteohub,2013-01-15 01:26:00,
2013-01-14 20:31:00,50.7,49.8,30.16,NW,305,0.0,7.0,97,0.00,,,0.44,meteohub,2013-01-15 01:31:00,
2013-01-14 20:36:00,50.5,49.6,30.15,WNW,287,1.0,7.0,97,0.00,,,0.44,meteohub,2013-01-15 01:36:00,
2013-01-14 20:41:00,50.5,49.6,30.15,NW,309,0.0,7.0,97,0.01,,,0.45,meteohub,2013-01-15 01:41:00,
2013-01-14 20:46:00,50.2,49.3,30.16,WNW,296,0.0,7.0,97,0.01,,,0.45,meteohub,2013-01-15 01:46:00,
2013-01-14 20:52:00,50.0,49.1,30.16,WNW,300,0.0,7.0,97,0.01,,,0.45,meteohub,2013-01-15 01:52:00,
2013-01-14 20:57:00,49.6,48.7,30.16,ENE,65,0.0,6.0,97,0.01,,,0.45,meteohub,2013-01-15 01:57:00,
2013-01-14 21:02:00,49.5,48.6,30.16,NE,48,3.0,6.0,97,0.01,,,0.45,meteohub,2013-01-15 02:02:00,
2013-01-14 21:07:00,49.1,48.2,30.16,North,0,0.0,6.0,97,0.01,,,0.45,meteohub,2013-01-15 02:07:00,
2013-01-14 21:12:00,48.9,48.0,30.16,NNE,24,3.0,5.0,97,0.02,,,0.46,meteohub,2013-01-15 02:12:00,
2013-01-14 21:17:00,48.7,47.8,30.16,NE,39,1.0,5.0,97,0.02,,,0.46,meteohub,2013-01-15 02:17:00,
2013-01-14 21:22:00,48.7,47.8,30.16,North,0,0.0,4.0,97,0.02,,,0.46,meteohub,2013-01-15 02:22:00,
2013-01-14 21:27:00,48.7,47.8,30.16,North,5,0.0,4.0,97,0.02,,,0.46,meteohub,2013-01-15 02:27:00,
2013-01-14 21:32:00,48.7,48.2,30.16,NNE,20,1.0,3.0,98,0.02,,,0.46,meteohub,2013-01-15 02:32:00,
2013-01-14 21:37:00,48.6,48.0,30.16,WNW,301,0.0,3.0,98,0.02,,,0.46,meteohub,2013-01-15 02:37:00,
2013-01-14 21:42:00,48.6,48.0,30.16,NW,313,0.0,3.0,98,0.01,,,0.46,meteohub,2013-01-15 02:42:00,
2013-01-14 21:47:00,48.6,47.7,30.16,NNW,348,0.0,3.0,97,0.01,,,0.46,meteohub,2013-01-15 02:47:00,
2013-01-14 21:52:00,48.6,48.0,30.16,North,11,0.0,2.0,98,0.01,,,0.46,meteohub,2013-01-15 02:52:00,
2013-01-14 21:57:00,48.6,48.0,30.16,North,11,0.0,2.0,98,0.01,,,0.46,meteohub,2013-01-15 02:57:00,
2013-01-14 22:02:00,48.6,48.0,30.16,North,11,0.0,2.0,98,0.01,,,0.46,meteohub,2013-01-15 03:02:00,
2013-01-14 22:07:00,48.6,48.0,30.15,North,11,0.0,1.0,98,0.00,,,0.46,meteohub,2013-01-15 03:07:00,
2013-01-14 22:12:00,48.4,47.8,30.15,North,11,0.0,1.0,98,0.00,,,0.46,meteohub,2013-01-15 03:12:00,
2013-01-14 22:17:00,48.4,47.8,30.16,North,11,0.0,1.0,98,0.00,,,0.46,meteohub,2013-01-15 03:17:00,
2013-01-14 22:22:00,48.6,48.0,30.15,North,11,0.0,0.0,98,0.00,,,0.46,meteohub,2013-01-15 03:22:00,
2013-01-14 22:27:00,48.4,47.8,30.15,NNW,335,0.0,2.0,98,0.00,,,0.46,meteohub,2013-01-15 03:27:00,
2013-01-14 22:32:00,48.4,47.8,30.15,NNW,335,0.0,2.0,98,0.00,,,0.46,meteohub,2013-01-15 03:32:00,
2013-01-14 22:37:00,48.4,47.8,30.16,NNW,335,0.0,2.0,98,0.00,,,0.46,meteohub,2013-01-15 03:37:00,
2013-01-14 22:42:00,48.4,47.8,30.16,NNW,335,0.0,1.0,98,0.00,,,0.46,meteohub,2013-01-15 03:42:00,
2013-01-14 22:47:00,48.6,48.0,30.16,NNW,333,0.0,2.0,98,0.01,,,0.47,meteohub,2013-01-15 03:47:00,
2013-01-14 22:52:00,48.6,48.0,30.16,NNW,333,0.0,2.0,98,0.04,,,0.50,meteohub,2013-01-15 03:52:00,
2013-01-14 22:57:00,48.6,48.0,30.16,NNW,333,0.0,1.0,98,0.04,,,0.50,meteohub,2013-01-15 03:57:00,
2013-01-14 23:03:00,48.6,48.0,30.15,NNW,333,0.0,1.0,98,0.04,,,0.50,meteohub,2013-01-15 04:03:00,
2013-01-14 23:08:00,48.6,48.0,30.15,NNW,333,0.0,1.0,98,0.04,,,0.50,meteohub,2013-01-15 04:08:00,
2013-01-14 23:13:00,48.6,48.0,30.15,NNW,333,0.0,1.0,98,0.04,,,0.50,meteohub,2013-01-15 04:13:00,
2013-01-14 23:18:00,48.6,48.0,30.15,NNW,333,0.0,1.0,98,0.04,,,0.50,meteohub,2013-01-15 04:18:00,
2013-01-14 23:23:00,48.4,47.8,30.15,NNW,333,0.0,1.0,98,0.04,,,0.50,meteohub,2013-01-15 04:23:00,
2013-01-14 23:28:00,48.4,47.8,30.15,NNW,333,0.0,1.0,98,0.04,,,0.50,meteohub,2013-01-15 04:28:00,
2013-01-14 23:33:00,48.4,47.8,30.15,NNW,333,0.0,0.0,98,0.04,,,0.50,meteohub,2013-01-15 04:33:00,
2013-01-14 23:38:00,48.4,47.8,30.16,NNW,333,0.0,0.0,98,0.04,,,0.50,meteohub,2013-01-15 04:38:00,
2013-01-14 23:43:00,48.6,48.0,30.16,NNW,333,0.0,0.0,98,0.04,,,0.50,meteohub,2013-01-15 04:43:00,
2013-01-14 23:48:00,48.6,48.0,30.15,NNW,333,0.0,0.0,98,0.02,,,0.50,meteohub,2013-01-15 04:48:00,
2013-01-14 23:53:00,48.6,48.0,30.15,NNW,333,0.0,1.0,98,0.00,,,0.50,meteohub,2013-01-15 04:53:00,
2013-01-14 23:58:00,48.7,48.2,30.15,NNW,333,0.0,1.0,98,0.00,,,0.50,meteohub,2013-01-15 04:58:00,